Time;durP1;ratioP1;P1;durP2;ratioP2;P2;SDS_P1;SDS_P2;PMS_P1;PMS_P2;Temp;Humidity;BMP_temperature;BMP_pressure;BME280_temperature;BME280_humidity;BME280_pressure;Samples;Min_cycle;Max_cycle;Signal;HPM_P1;HPM_P2
2021/07/19 00:01:42;;;;;;;7.47;3.83;;;21.20;80.00;;;;;;5073473;28;20052;-89
2021/07/19 00:04:08;;;;;;;8.88;4.20;;;21.10;80.10;;;;;;5072264;28;20048;-88
2021/07/19 00:06:33;;;;;;;9.18;3.97;;;21.10;80.20;;;;;;5059939;28;20049;-89
2021/07/19 00:09:00;;;;;;;9.15;4.13;;;21.10;80.20;;;;;;5052993;28;20568;-88
2021/07/19 00:11:28;;;;;;;8.18;4.18;;;21.10;80.20;;;;;;5052599;28;20132;-88
2021/07/19 00:13:53;;;;;;;9.23;3.90;;;21.00;80.30;;;;;;5053227;28;20041;-89
2021/07/19 00:16:19;;;;;;;7.90;4.40;;;21.00;80.40;;;;;;5055293;28;20049;-88
2021/07/19 00:18:45;;;;;;;9.13;3.72;;;21.00;80.20;;;;;;5072078;28;20044;-87
2021/07/19 00:21:10;;;;;;;9.75;4.50;;;21.00;80.40;;;;;;5072897;28;20049;-88
2021/07/19 00:23:36;;;;;;;9.45;4.30;;;20.90;80.70;;;;;;5073652;28;20044;-88
2021/07/19 00:26:02;;;;;;;7.70;4.38;;;20.90;80.70;;;;;;5073563;28;20049;-87
2021/07/19 00:28:28;;;;;;;7.38;4.00;;;20.90;80.90;;;;;;5075087;28;20049;-88
2021/07/19 00:30:54;;;;;;;7.80;4.10;;;20.80;80.80;;;;;;5073705;28;20689;-88
2021/07/19 00:33:19;;;;;;;10.68;4.20;;;20.80;80.80;;;;;;5075888;28;20048;-88
2021/07/19 00:35:45;;;;;;;8.00;4.30;;;20.80;80.90;;;;;;5076407;28;20181;-87
2021/07/19 00:38:11;;;;;;;9.63;4.55;;;20.80;80.90;;;;;;5075604;28;20052;-89
2021/07/19 00:40:37;;;;;;;10.05;4.35;;;20.80;81.00;;;;;;5076765;28;20048;-88
2021/07/19 00:43:04;;;;;;;9.00;4.60;;;20.70;81.40;;;;;;5076210;28;20119;-88
2021/07/19 00:45:31;;;;;;;8.65;4.22;;;20.70;81.40;;;;;;5073776;28;20056;-88
2021/07/19 00:47:59;;;;;;;8.75;4.28;;;20.70;81.30;;;;;;5076616;28;20075;-88
2021/07/19 00:50:27;;;;;;;10.20;4.50;;;20.60;81.30;;;;;;5076326;28;20546;-88
2021/07/19 00:52:57;;;;;;;7.80;4.18;;;20.60;81.60;;;;;;5075891;28;20048;-87
2021/07/19 00:55:34;;;;;;;9.63;4.90;;;20.60;81.60;;;;;;5076288;28;20423;-88
2021/07/19 00:58:05;;;;;;;10.70;4.50;;;20.60;81.40;;;;;;5066713;28;20056;-88
2021/07/19 01:00:34;;;;;;;7.68;4.40;;;20.50;81.60;;;;;;5055374;28;20037;-86
2021/07/19 01:03:04;;;;;;;9.88;4.28;;;20.50;81.70;;;;;;5056052;28;20053;-87
2021/07/19 01:05:30;;;;;;;9.63;4.45;;;20.50;81.80;;;;;;5056418;28;20069;-87
2021/07/19 01:07:57;;;;;;;8.85;4.25;;;20.40;81.60;;;;;;5055463;28;20370;-88
2021/07/19 01:10:24;;;;;;;9.10;4.22;;;20.40;81.50;;;;;;5055840;28;20055;-87
2021/07/19 01:12:55;;;;;;;10.20;4.70;;;20.40;81.60;;;;;;5055851;28;20060;-87
2021/07/19 01:15:25;;;;;;;9.20;4.63;;;20.30;81.70;;;;;;5054568;28;20503;-88
2021/07/19 01:17:52;;;;;;;9.20;4.43;;;20.30;81.80;;;;;;5056119;28;20075;-88
2021/07/19 01:20:22;;;;;;;9.30;4.55;;;20.30;82.00;;;;;;5054509;28;20064;-88
2021/07/19 01:23:24;;;;;;;10.30;4.70;;;20.20;81.80;;;;;;5056031;28;20053;-88
2021/07/19 01:26:24;;;;;;;9.07;4.75;;;20.20;81.20;;;;;;5065255;28;20598;-88
2021/07/19 01:28:51;;;;;;;8.20;4.78;;;20.20;81.60;;;;;;5058955;28;20053;-88
2021/07/19 01:31:24;;;;;;;8.85;4.38;;;20.20;82.60;;;;;;5055438;28;20049;-88
2021/07/19 01:33:57;;;;;;;8.55;4.88;;;20.20;82.10;;;;;;5054619;28;20045;-88
2021/07/19 01:36:28;;;;;;;9.32;4.60;;;20.10;82.10;;;;;;5052958;28;20416;-88
2021/07/19 01:38:54;;;;;;;8.98;4.60;;;20.10;82.20;;;;;;5054692;28;20052;-88
2021/07/19 01:41:21;;;;;;;9.05;4.93;;;20.10;82.20;;;;;;5053855;28;20045;-88
2021/07/19 01:43:47;;;;;;;8.23;4.55;;;20.00;82.40;;;;;;5055299;28;20049;-88
2021/07/19 01:46:15;;;;;;;7.28;4.35;;;20.00;82.80;;;;;;5054422;28;20086;-88
2021/07/19 01:48:42;;;;;;;10.30;5.13;;;20.00;82.80;;;;;;5054626;28;20511;-87
2021/07/19 01:51:10;;;;;;;9.65;4.90;;;19.90;82.90;;;;;;5054889;28;20055;-88
2021/07/19 01:53:36;;;;;;;9.10;4.90;;;19.90;82.90;;;;;;5054182;28;20428;-88
2021/07/19 01:56:04;;;;;;;9.55;4.60;;;19.90;82.90;;;;;;5053825;28;20064;-88
2021/07/19 01:58:30;;;;;;;11.02;5.13;;;19.90;83.20;;;;;;5074991;28;20056;-88
2021/07/19 02:00:57;;;;;;;10.27;5.15;;;19.90;83.40;;;;;;5074773;28;20518;-88
2021/07/19 02:03:23;;;;;;;9.00;4.63;;;19.90;83.50;;;;;;5074041;28;20052;-87
2021/07/19 02:05:50;;;;;;;8.10;4.85;;;19.80;83.60;;;;;;5074599;28;20049;-87
2021/07/19 02:08:17;;;;;;;9.77;4.72;;;19.80;83.50;;;;;;5074031;28;20052;-87
2021/07/19 02:10:48;;;;;;;9.43;5.25;;;19.80;83.40;;;;;;5073871;28;20463;-88
2021/07/19 02:13:15;;;;;;;8.63;4.88;;;19.70;83.50;;;;;;5074368;28;20423;-87
2021/07/19 02:15:42;;;;;;;8.57;4.90;;;19.70;83.60;;;;;;5074200;28;20114;-88
2021/07/19 02:18:12;;;;;;;8.85;5.18;;;19.70;83.40;;;;;;5073146;28;20097;-88
2021/07/19 02:20:38;;;;;;;9.30;4.95;;;19.70;83.40;;;;;;5074166;28;20086;-88
2021/07/19 02:23:05;;;;;;;12.13;5.35;;;19.70;83.30;;;;;;5074458;28;20048;-89
2021/07/19 02:25:33;;;;;;;8.63;4.53;;;19.60;82.80;;;;;;5063209;28;20048;-88
2021/07/19 02:28:03;;;;;;;9.27;5.18;;;19.60;82.80;;;;;;5070562;28;20048;-88
2021/07/19 02:30:30;;;;;;;9.43;5.22;;;19.60;83.10;;;;;;5073391;28;20052;-88
2021/07/19 02:32:57;;;;;;;9.18;5.30;;;19.60;83.00;;;;;;5073921;28;20052;-88
2021/07/19 02:35:24;;;;;;;10.85;5.60;;;19.60;83.10;;;;;;5073227;28;20044;-87
2021/07/19 02:37:52;;;;;;;9.27;5.10;;;19.60;83.50;;;;;;5072794;28;20504;-87
2021/07/19 02:40:21;;;;;;;10.32;5.38;;;19.60;83.50;;;;;;5073800;28;20044;-87
2021/07/19 02:42:56;;;;;;;8.93;4.75;;;19.50;83.50;;;;;;5072461;28;20124;-87
2021/07/19 02:45:25;;;;;;;7.97;4.90;;;19.50;83.20;;;;;;5072353;28;20052;-88
2021/07/19 02:47:52;;;;;;;9.07;5.40;;;19.50;83.60;;;;;;5070837;28;20045;-87
2021/07/19 02:50:22;;;;;;;9.02;5.07;;;19.50;83.60;;;;;;5073029;28;20053;-89
2021/07/19 02:52:49;;;;;;;9.02;4.95;;;19.50;83.20;;;;;;5073206;28;20127;-87
2021/07/19 02:55:16;;;;;;;8.85;5.30;;;19.40;83.50;;;;;;5073271;28;20529;-88
2021/07/19 02:57:48;;;;;;;8.27;5.00;;;19.40;83.70;;;;;;5057844;28;20048;-89
2021/07/19 03:00:18;;;;;;;10.00;4.85;;;19.40;83.50;;;;;;5052643;28;20334;-87
2021/07/19 03:02:49;;;;;;;12.18;5.63;;;19.40;83.00;;;;;;5053218;28;20049;-88
2021/07/19 03:05:18;;;;;;;9.50;5.57;;;19.40;83.40;;;;;;5053507;28;20051;-88
2021/07/19 03:07:54;;;;;;;9.95;5.43;;;19.40;83.10;;;;;;5052777;28;20049;-87
2021/07/19 03:10:22;;;;;;;9.88;5.15;;;19.30;83.00;;;;;;5053604;28;20120;-88
2021/07/19 03:12:57;;;;;;;8.40;4.93;;;19.30;83.40;;;;;;5053318;28;20045;-87
2021/07/19 03:15:27;;;;;;;8.35;4.95;;;19.30;83.30;;;;;;5057198;28;20067;-88
2021/07/19 03:17:53;;;;;;;9.93;5.30;;;19.30;83.90;;;;;;5073484;28;20048;-87
2021/07/19 03:20:20;;;;;;;8.93;5.15;;;19.30;83.90;;;;;;5071340;28;20048;-86
2021/07/19 03:22:47;;;;;;;9.00;5.13;;;19.30;83.80;;;;;;5073221;28;20131;-88
2021/07/19 03:25:13;;;;;;;9.38;5.50;;;19.30;83.90;;;;;;5073044;28;20059;-87
2021/07/19 03:27:43;;;;;;;10.82;5.40;;;19.30;84.10;;;;;;5058457;28;20049;-88
2021/07/19 03:30:21;;;;;;;8.05;5.28;;;19.20;83.90;;;;;;5053256;28;20044;-87
2021/07/19 03:32:49;;;;;;;11.50;5.05;;;19.20;83.90;;;;;;5053239;28;20051;-88
2021/07/19 03:35:21;;;;;;;10.95;5.57;;;19.20;84.40;;;;;;5053027;28;20397;-88
2021/07/19 03:37:51;;;;;;;8.95;4.65;;;19.20;84.30;;;;;;5053327;28;20055;-87
2021/07/19 03:40:30;;;;;;;9.32;5.28;;;19.20;84.50;;;;;;5053118;28;20485;-87
2021/07/19 03:42:59;;;;;;;11.88;5.38;;;19.10;84.60;;;;;;5052765;28;20045;-86
2021/07/19 03:45:27;;;;;;;11.05;5.43;;;19.10;83.90;;;;;;5053036;28;20056;-87
2021/07/19 03:47:54;;;;;;;8.75;4.97;;;19.10;83.80;;;;;;5052703;28;20047;-87
2021/07/19 03:50:20;;;;;;;9.32;5.35;;;19.10;83.00;;;;;;5053029;28;20045;-88
2021/07/19 03:52:47;;;;;;;10.50;5.30;;;19.10;83.20;;;;;;5052866;28;20397;-87
2021/07/19 03:55:15;;;;;;;10.20;5.25;;;19.10;83.80;;;;;;5051328;28;20500;-87
2021/07/19 03:57:42;;;;;;;7.90;4.82;;;19.10;83.80;;;;;;5067054;28;20107;-85
2021/07/19 04:00:11;;;;;;;11.05;5.13;;;19.10;84.00;;;;;;5076243;28;20047;-87
2021/07/19 04:02:37;;;;;;;10.10;5.15;;;19.00;84.10;;;;;;5076161;28;20044;-87
2021/07/19 04:05:07;;;;;;;8.60;4.68;;;19.00;84.20;;;;;;5077016;28;20385;-87
2021/07/19 04:07:37;;;;;;;8.65;5.00;;;19.00;84.20;;;;;;5076831;28;20186;-86
2021/07/19 04:10:22;;;;;;;9.65;5.35;;;19.00;84.10;;;;;;5075798;28;20174;-87
2021/07/19 04:12:50;;;;;;;7.97;4.93;;;19.00;83.40;;;;;;5076904;28;20047;-87
2021/07/19 04:15:17;;;;;;;8.82;5.13;;;19.00;84.50;;;;;;5076671;28;20075;-88
2021/07/19 04:17:45;;;;;;;9.07;4.85;;;19.00;84.30;;;;;;5076185;28;20063;-87
2021/07/19 04:20:12;;;;;;;9.48;5.43;;;18.90;84.20;;;;;;5076507;28;20056;-88
2021/07/19 04:22:39;;;;;;;11.30;4.95;;;19.00;84.10;;;;;;5076622;28;20495;-87
2021/07/19 04:25:10;;;;;;;7.80;5.05;;;18.90;84.20;;;;;;5075278;28;20055;-87
2021/07/19 04:27:41;;;;;;;8.10;4.95;;;18.90;84.30;;;;;;5063358;28;20056;-87
2021/07/19 04:30:11;;;;;;;10.95;5.75;;;18.90;83.60;;;;;;5055830;28;20052;-86
2021/07/19 04:32:47;;;;;;;8.80;4.78;;;18.90;83.90;;;;;;5076232;28;20434;-86
2021/07/19 04:35:20;;;;;;;9.18;5.20;;;18.90;83.70;;;;;;5075772;28;20496;-87
2021/07/19 04:37:50;;;;;;;9.60;4.75;;;18.90;84.20;;;;;;5075437;28;20048;-87
2021/07/19 04:40:16;;;;;;;9.95;5.13;;;18.80;84.50;;;;;;5074240;28;20044;-87
2021/07/19 04:42:42;;;;;;;12.18;5.50;;;18.90;84.70;;;;;;5075060;28;20397;-87
2021/07/19 04:45:19;;;;;;;11.77;6.50;;;18.90;84.70;;;;;;5075438;28;20089;-88
2021/07/19 04:47:49;;;;;;;9.45;5.20;;;18.90;84.50;;;;;;5072577;28;20048;-87
2021/07/19 04:50:17;;;;;;;10.95;6.47;;;18.80;84.70;;;;;;5075995;28;20044;-86
2021/07/19 04:52:48;;;;;;;11.07;5.43;;;18.80;84.60;;;;;;5075438;28;20228;-86
2021/07/19 04:55:30;;;;;;;12.43;7.13;;;18.80;84.60;;;;;;5075418;28;20086;-86
2021/07/19 04:58:12;;;;;;;13.63;7.30;;;18.80;84.60;;;;;;5069601;28;20045;-86
2021/07/19 05:00:39;;;;;;;15.30;7.38;;;18.70;85.10;;;;;;5062511;28;20433;-86
2021/07/19 05:03:06;;;;;;;13.23;7.20;;;18.70;85.10;;;;;;5075232;28;20408;-84
2021/07/19 05:05:40;;;;;;;12.40;5.75;;;18.70;85.10;;;;;;5074145;28;20049;-84
2021/07/19 05:08:07;;;;;;;10.45;5.97;;;18.70;85.00;;;;;;5055257;28;20049;-84
2021/07/19 05:10:34;;;;;;;10.05;5.85;;;18.70;85.30;;;;;;5055239;28;20132;-85
2021/07/19 05:13:01;;;;;;;9.55;5.68;;;18.60;85.10;;;;;;5054982;28;20110;-86
2021/07/19 05:15:28;;;;;;;13.55;7.05;;;18.70;85.10;;;;;;5056053;28;20049;-87
2021/07/19 05:17:54;;;;;;;11.52;5.47;;;18.60;85.20;;;;;;5055980;28;20045;-87
2021/07/19 05:20:22;;;;;;;8.25;5.25;;;18.60;86.30;;;;;;5054705;28;20060;-87
2021/07/19 05:22:53;;;;;;;9.32;5.25;;;18.60;85.60;;;;;;5063354;28;20040;-86
2021/07/19 05:25:30;;;;;;;10.02;5.38;;;18.60;85.30;;;;;;5074598;28;20514;-87
2021/07/19 05:28:05;;;;;;;9.13;5.55;;;18.60;84.90;;;;;;5071811;28;20452;-86
2021/07/19 05:30:31;;;;;;;9.85;5.93;;;18.60;85.20;;;;;;5074938;28;20143;-86
2021/07/19 05:32:58;;;;;;;9.65;5.72;;;18.60;85.40;;;;;;5075082;28;20036;-86
2021/07/19 05:35:23;;;;;;;7.93;5.03;;;18.60;85.40;;;;;;5074108;28;20098;-85
2021/07/19 05:37:49;;;;;;;9.18;6.03;;;18.60;85.60;;;;;;5074627;28;20052;-86
2021/07/19 05:40:16;;;;;;;9.23;5.78;;;18.60;85.20;;;;;;5074458;28;20071;-85
2021/07/19 05:42:43;;;;;;;9.63;5.38;;;18.60;85.40;;;;;;5074663;28;20045;-86
2021/07/19 05:45:10;;;;;;;11.10;6.15;;;18.60;84.90;;;;;;5073861;28;20045;-85
2021/07/19 05:47:36;;;;;;;10.27;5.30;;;18.60;84.70;;;;;;5074226;28;20045;-85
2021/07/19 05:50:05;;;;;;;10.63;5.85;;;18.60;84.70;;;;;;5074849;28;20059;-85
2021/07/19 05:52:32;;;;;;;16.52;7.30;;;18.60;85.20;;;;;;5074934;28;20045;-85
2021/07/19 05:54:58;;;;;;;10.25;5.65;;;18.70;85.60;;;;;;5074127;28;20059;-87
2021/07/19 05:57:28;;;;;;;10.98;5.18;;;18.60;85.50;;;;;;5063783;28;20053;-86
2021/07/19 05:59:56;;;;;;;12.27;5.47;;;18.60;84.60;;;;;;5055094;28;20056;-87
2021/07/19 06:02:22;;;;;;;14.38;5.57;;;18.60;85.00;;;;;;5054033;28;20106;-87
2021/07/19 06:04:48;;;;;;;15.15;5.68;;;18.60;85.10;;;;;;5054883;28;20467;-88
2021/07/19 06:07:14;;;;;;;10.23;5.35;;;18.60;85.20;;;;;;5054496;28;20102;-86
2021/07/19 06:09:39;;;;;;;14.45;5.22;;;18.60;84.90;;;;;;5054080;28;20132;-86
2021/07/19 06:12:05;;;;;;;10.88;4.90;;;18.60;84.90;;;;;;5054652;28;20438;-87
2021/07/19 06:14:31;;;;;;;9.60;4.88;;;18.60;84.90;;;;;;5054853;28;20056;-87
2021/07/19 06:16:57;;;;;;;13.65;5.38;;;18.60;85.10;;;;;;5053527;28;20554;-86
2021/07/19 06:19:23;;;;;;;11.75;5.70;;;18.60;84.90;;;;;;5054338;28;20044;-86
2021/07/19 06:21:49;;;;;;;12.25;5.15;;;18.60;85.30;;;;;;5053831;28;20053;-87
2021/07/19 06:24:14;;;;;;;15.57;5.38;;;18.60;84.90;;;;;;5053709;28;20045;-86
2021/07/19 06:26:40;;;;;;;11.30;4.90;;;18.60;84.60;;;;;;5058698;28;20044;-86
2021/07/19 06:29:06;;;;;;;12.63;4.93;;;18.60;85.00;;;;;;5074235;28;20488;-86
2021/07/19 06:31:39;;;;;;;9.98;4.47;;;18.60;85.80;;;;;;5073803;28;20048;-86
2021/07/19 06:34:05;;;;;;;11.40;4.72;;;18.60;85.30;;;;;;5073947;28;20071;-86
2021/07/19 06:36:31;;;;;;;11.60;4.82;;;18.60;84.60;;;;;;5074203;28;20079;-86
2021/07/19 06:38:58;;;;;;;11.68;4.60;;;18.60;85.00;;;;;;5074268;28;20040;-87
2021/07/19 06:41:27;;;;;;;12.13;4.45;;;18.60;84.80;;;;;;5069277;28;20409;-86
2021/07/19 06:43:52;;;;;;;11.68;4.75;;;18.60;84.50;;;;;;5053233;28;20064;-86
2021/07/19 06:46:18;;;;;;;10.25;4.50;;;18.60;85.10;;;;;;5061572;28;20036;-86
2021/07/19 06:48:44;;;;;;;10.00;4.40;;;18.60;85.20;;;;;;5066106;28;20497;-86
2021/07/19 06:51:09;;;;;;;13.18;4.20;;;18.60;84.60;;;;;;5052994;28;20048;-86
2021/07/19 06:53:35;;;;;;;8.18;3.92;;;18.60;83.70;;;;;;5055576;28;20120;-88
2021/07/19 06:56:01;;;;;;;9.13;4.05;;;18.60;84.30;;;;;;5053736;28;20088;-85
2021/07/19 06:58:26;;;;;;;10.45;4.32;;;18.60;84.30;;;;;;5053462;28;20044;-84
2021/07/19 07:00:52;;;;;;;8.40;3.97;;;18.60;84.60;;;;;;5053854;28;20289;-84
2021/07/19 07:03:18;;;;;;;9.25;3.80;;;18.60;84.80;;;;;;5053403;28;20492;-84
2021/07/19 07:05:43;;;;;;;9.43;4.05;;;18.70;84.70;;;;;;5053141;28;20049;-85
2021/07/19 07:08:09;;;;;;;11.30;3.88;;;18.60;83.90;;;;;;5053604;28;20106;-84
2021/07/19 07:10:35;;;;;;;9.70;3.70;;;18.60;83.70;;;;;;5054002;28;20077;-85
2021/07/19 07:13:00;;;;;;;14.50;4.20;;;18.60;84.10;;;;;;5053961;28;20056;-85
2021/07/19 07:15:27;;;;;;;12.35;3.95;;;18.60;83.60;;;;;;5053263;28;20052;-83
2021/07/19 07:17:53;;;;;;;9.52;3.80;;;18.60;83.90;;;;;;5053592;28;20057;-84
2021/07/19 07:20:19;;;;;;;12.35;3.92;;;18.60;84.00;;;;;;5062678;28;20558;-84
2021/07/19 07:22:45;;;;;;;9.82;3.53;;;18.70;83.30;;;;;;5074197;28;20068;-85
2021/07/19 07:25:11;;;;;;;9.98;3.60;;;18.70;83.00;;;;;;5075885;28;20040;-85
2021/07/19 07:27:38;;;;;;;12.00;3.88;;;18.60;82.50;;;;;;5077848;28;20066;-85
2021/07/19 07:30:06;;;;;;;8.52;3.63;;;18.60;82.60;;;;;;5096269;28;20662;-86
2021/07/19 07:32:32;;;;;;;8.43;3.80;;;18.70;82.20;;;;;;5088726;28;20094;-84
2021/07/19 07:34:58;;;;;;;9.65;3.88;;;18.70;82.10;;;;;;5076150;28;20044;-84
2021/07/19 07:37:24;;;;;;;14.40;3.72;;;18.80;82.90;;;;;;5082265;28;20515;-85
2021/07/19 07:39:50;;;;;;;12.52;3.70;;;18.80;82.70;;;;;;5078069;28;20072;-88
2021/07/19 07:42:16;;;;;;;9.32;3.75;;;18.80;81.80;;;;;;5090523;28;20047;-87
2021/07/19 07:44:42;;;;;;;12.15;3.95;;;18.90;82.50;;;;;;5091422;28;20083;-88
2021/07/19 07:47:11;;;;;;;11.35;3.67;;;18.90;83.10;;;;;;5090296;28;20052;-87
2021/07/19 07:49:39;;;;;;;12.70;4.50;;;19.00;83.70;;;;;;5090221;28;20048;-90
2021/07/19 07:52:07;;;;;;;8.93;3.67;;;19.10;81.40;;;;;;5078255;28;20082;-88
2021/07/19 07:54:32;;;;;;;9.95;4.45;;;19.10;81.60;;;;;;5081011;28;20044;-88
2021/07/19 07:56:58;;;;;;;8.68;3.88;;;19.20;81.10;;;;;;5078558;28;20056;-88
2021/07/19 07:59:24;;;;;;;9.77;4.13;;;19.10;80.20;;;;;;5089638;28;20051;-89
2021/07/19 08:01:50;;;;;;;9.63;3.78;;;19.10;80.40;;;;;;5064416;28;20451;-89
2021/07/19 08:04:15;;;;;;;11.85;4.28;;;19.10;81.30;;;;;;5055326;28;20052;-91
2021/07/19 08:06:43;;;;;;;8.77;3.90;;;19.10;80.70;;;;;;5060505;28;20057;-89
2021/07/19 08:09:08;;;;;;;10.63;4.10;;;19.10;81.50;;;;;;5052904;28;20045;-91
2021/07/19 08:11:34;;;;;;;9.35;3.83;;;19.10;82.30;;;;;;5054665;28;20587;-88
2021/07/19 08:14:00;;;;;;;16.92;4.43;;;19.10;82.00;;;;;;5061401;28;20558;-89
2021/07/19 08:16:26;;;;;;;8.95;4.07;;;19.20;81.20;;;;;;5077701;28;20435;-90
2021/07/19 08:18:51;;;;;;;9.80;3.80;;;19.10;82.10;;;;;;5056572;28;20107;-88
2021/07/19 08:21:17;;;;;;;8.95;4.10;;;19.20;82.50;;;;;;5058375;28;20053;-89
2021/07/19 08:23:43;;;;;;;9.90;4.00;;;19.20;82.50;;;;;;5070569;28;20053;-88
2021/07/19 08:26:11;;;;;;;9.90;3.88;;;19.30;82.70;;;;;;5068244;28;20051;-89
2021/07/19 08:28:37;;;;;;;12.90;4.45;;;19.30;82.50;;;;;;5064235;28;20065;-89
2021/07/19 08:31:03;;;;;;;8.85;3.72;;;19.40;81.60;;;;;;5051794;28;20057;-90
2021/07/19 08:33:30;;;;;;;11.27;3.83;;;19.40;81.50;;;;;;5062955;28;20041;-90
2021/07/19 08:35:55;;;;;;;21.05;4.43;;;19.40;81.60;;;;;;5078462;28;20396;-89
2021/07/19 08:38:21;;;;;;;10.57;3.78;;;19.50;81.00;;;;;;5092735;28;20044;-89
2021/07/19 08:40:48;;;;;;;8.60;3.67;;;19.60;81.20;;;;;;5073832;28;20052;-89
2021/07/19 08:43:14;;;;;;;11.00;4.00;;;19.60;81.80;;;;;;5071811;28;20045;-89
2021/07/19 08:45:40;;;;;;;11.05;3.60;;;19.70;81.20;;;;;;5074909;28;20446;-90
2021/07/19 08:48:06;;;;;;;10.50;4.10;;;19.70;80.80;;;;;;5076484;28;20083;-88
2021/07/19 08:50:32;;;;;;;9.77;4.05;;;19.80;79.00;;;;;;5076060;28;20139;-89
2021/07/19 08:52:58;;;;;;;11.00;3.92;;;19.80;79.40;;;;;;5095268;28;20051;-89
2021/07/19 08:55:25;;;;;;;12.73;4.15;;;19.80;79.50;;;;;;5074775;28;20048;-87
2021/07/19 08:57:51;;;;;;;11.32;3.80;;;19.80;78.80;;;;;;5055459;28;20532;-88
2021/07/19 09:00:20;;;;;;;11.60;3.60;;;19.80;78.60;;;;;;5071451;28;20057;-88
2021/07/19 09:02:46;;;;;;;11.18;4.07;;;19.80;78.40;;;;;;5076466;28;20504;-87
2021/07/19 09:05:13;;;;;;;11.07;3.85;;;19.80;77.70;;;;;;5075124;28;20132;-87
2021/07/19 09:07:40;;;;;;;8.38;4.03;;;19.80;78.80;;;;;;5076095;28;20131;-88
2021/07/19 09:10:07;;;;;;;9.73;3.67;;;19.80;78.80;;;;;;5075551;28;20074;-88
2021/07/19 09:12:37;;;;;;;10.43;3.25;;;19.80;78.60;;;;;;5075106;28;20056;-88
2021/07/19 09:15:05;;;;;;;9.32;3.92;;;19.90;77.40;;;;;;5057715;28;20483;-87
2021/07/19 09:17:31;;;;;;;8.65;3.95;;;19.90;78.50;;;;;;5075514;28;20048;-88
2021/07/19 09:19:57;;;;;;;15.40;4.13;;;20.00;79.70;;;;;;5074546;28;20110;-88
2021/07/19 09:22:32;;;;;;;12.98;3.67;;;20.10;78.00;;;;;;5075801;28;20056;-88
2021/07/19 09:25:14;;;;;;;10.65;3.72;;;20.10;77.00;;;;;;5075371;28;20047;-86
2021/07/19 09:27:57;;;;;;;12.60;3.50;;;20.10;75.70;;;;;;5055724;28;20052;-88
2021/07/19 09:30:26;;;;;;;12.25;3.45;;;20.10;77.30;;;;;;5055276;28;20053;-89
2021/07/19 09:32:59;;;;;;;13.23;3.83;;;20.10;76.80;;;;;;5036915;28;20091;-89
2021/07/19 09:35:25;;;;;;;;;;;20.10;75.30;;;;;;5055387;28;20508;-88
2021/07/19 09:37:52;;;;;;;7.85;3.67;;;20.00;75.40;;;;;;5055142;28;20277;-89
2021/07/19 09:40:24;;;;;;;10.23;3.55;;;20.00;78.30;;;;;;5054163;28;20102;-88
2021/07/19 09:42:51;;;;;;;11.82;3.25;;;20.10;77.40;;;;;;5054974;28;20045;-87
2021/07/19 09:45:25;;;;;;;8.98;3.80;;;20.10;76.80;;;;;;5054586;28;20132;-88
2021/07/19 09:47:59;;;;;;;8.10;3.58;;;20.20;78.20;;;;;;5067323;28;20476;-90
2021/07/19 09:50:24;;;;;;;10.75;4.10;;;20.30;79.00;;;;;;5060353;28;20055;-88
2021/07/19 09:52:50;;;;;;;7.35;3.42;;;20.30;78.50;;;;;;5057031;28;20128;-86
2021/07/19 09:55:23;;;;;;;9.98;3.38;;;20.40;77.00;;;;;;5062832;28;20081;-87
2021/07/19 09:58:00;;;;;;;10.18;3.67;;;20.50;76.40;;;;;;5067004;28;20048;-87
2021/07/19 10:00:27;;;;;;;9.45;3.60;;;20.50;77.40;;;;;;5072581;28;20068;-88
2021/07/19 10:02:58;;;;;;;7.82;3.78;;;20.60;77.00;;;;;;5069441;28;20498;-89
2021/07/19 10:05:26;;;;;;;10.80;3.78;;;20.60;76.80;;;;;;5060040;28;20133;-87
2021/07/19 10:07:52;;;;;;;10.48;3.85;;;20.70;75.30;;;;;;5056654;28;20053;-87
2021/07/19 10:10:32;;;;;;;8.68;3.58;;;20.70;75.10;;;;;;5056533;28;20064;-90
2021/07/19 10:13:03;;;;;;;9.27;3.63;;;20.70;76.00;;;;;;5056571;28;20045;-90
2021/07/19 10:15:31;;;;;;;11.05;3.58;;;20.80;77.40;;;;;;5058649;28;20051;-87
2021/07/19 10:17:59;;;;;;;9.07;3.88;;;20.80;76.30;;;;;;5074038;28;20553;-89
2021/07/19 10:20:26;;;;;;;9.20;3.65;;;20.80;78.00;;;;;;5063662;28;20052;-90
2021/07/19 10:22:51;;;;;;;11.88;3.53;;;20.90;75.80;;;;;;5054988;28;20480;-90
2021/07/19 10:25:18;;;;;;;8.80;4.00;;;20.90;75.60;;;;;;5054369;28;20041;-90
2021/07/19 10:27:46;;;;;;;10.50;3.60;;;21.00;75.30;;;;;;5066826;28;20055;-89
2021/07/19 10:30:13;;;;;;;11.02;3.60;;;21.10;76.10;;;;;;5065402;28;20045;-88
2021/07/19 10:32:39;;;;;;;10.48;3.65;;;21.10;73.50;;;;;;5066732;28;20132;-88
2021/07/19 10:35:06;;;;;;;10.35;3.90;;;21.10;72.60;;;;;;5054826;28;20077;-90
2021/07/19 10:37:44;;;;;;;9.65;3.50;;;21.10;74.20;;;;;;5053474;28;20049;-89
2021/07/19 10:40:14;;;;;;;7.13;2.90;;;21.10;73.90;;;;;;5064173;28;20048;-87
2021/07/19 10:42:44;;;;;;;7.70;3.17;;;21.10;73.30;;;;;;5070179;28;20105;-87
2021/07/19 10:45:19;;;;;;;10.63;3.60;;;21.10;74.00;;;;;;5068591;28;20119;-86
2021/07/19 10:47:53;;;;;;;9.30;3.40;;;21.20;75.00;;;;;;5075131;28;20056;-88
2021/07/19 10:50:22;;;;;;;9.70;3.63;;;21.20;74.70;;;;;;5085133;28;20051;-87
2021/07/19 10:52:49;;;;;;;9.32;3.65;;;21.30;73.60;;;;;;5094464;28;20055;-89
2021/07/19 10:55:32;;;;;;;9.15;3.28;;;21.30;72.80;;;;;;5070967;28;20049;-87
2021/07/19 10:58:01;;;;;;;;;;;21.30;70.40;;;;;;5066642;28;20492;-88
2021/07/19 11:00:29;;;;;;;8.32;3.40;;;21.20;70.00;;;;;;5062647;28;19921;-88
2021/07/19 11:03:12;;;;;;;7.50;3.13;;;21.20;71.00;;;;;;5053975;28;20114;-88
2021/07/19 11:05:43;;;;;;;8.93;3.63;;;21.30;71.70;;;;;;5054563;28;20049;-88
2021/07/19 11:08:20;;;;;;;7.25;3.60;;;21.30;71.70;;;;;;5035212;28;20064;-88
2021/07/19 11:10:47;;;;;;;8.05;3.30;;;21.40;71.60;;;;;;5053817;28;20080;-87
2021/07/19 11:13:31;;;;;;;8.15;3.80;;;21.40;71.90;;;;;;5053011;28;20052;-88
2021/07/19 11:15:58;;;;;;;9.80;3.60;;;21.40;69.90;;;;;;5073212;28;20044;-87
2021/07/19 11:18:29;;;;;;;8.43;3.72;;;21.50;69.10;;;;;;5072302;28;20053;-81
2021/07/19 11:21:00;;;;;;;10.15;3.90;;;21.50;69.90;;;;;;5073237;28;20052;-83
2021/07/19 11:23:34;;;;;;;8.60;3.90;;;21.60;67.90;;;;;;5073145;28;20052;-82
2021/07/19 11:26:03;;;;;;;9.05;3.70;;;21.50;68.40;;;;;;5072090;28;20048;-83
2021/07/19 11:28:31;;;;;;;9.35;3.80;;;21.50;67.80;;;;;;5072762;28;20123;-83
2021/07/19 11:31:01;;;;;;;8.30;3.92;;;21.50;69.00;;;;;;5072998;28;20052;-87
2021/07/19 11:33:56;;;;;;;6.57;3.58;;;21.50;70.30;;;;;;5073087;28;20068;-88
2021/07/19 11:36:28;;;;;;;8.52;4.25;;;21.50;70.10;;;;;;5065972;28;20048;-89
2021/07/19 11:38:56;;;;;;;9.38;4.10;;;21.60;72.20;;;;;;5073257;28;20523;-88
2021/07/19 11:41:27;;;;;;;7.60;4.78;;;21.60;72.30;;;;;;5073060;28;20087;-89
2021/07/19 11:43:58;;;;;;;9.57;5.18;;;21.70;69.70;;;;;;5073488;28;20049;-88
2021/07/19 11:46:34;;;;;;;8.43;4.72;;;21.80;69.20;;;;;;5072842;28;20102;-88
2021/07/19 11:49:06;;;;;;;10.45;4.45;;;21.80;70.30;;;;;;5073268;28;20049;-88
2021/07/19 11:51:33;;;;;;;10.52;5.20;;;21.80;72.20;;;;;;5073569;28;20404;-88
2021/07/19 11:54:00;;;;;;;7.28;4.43;;;22.00;70.40;;;;;;5072414;28;20072;-87
2021/07/19 11:56:27;;;;;;;8.50;5.40;;;22.00;70.40;;;;;;5073268;28;20049;-88
2021/07/19 11:59:01;;;;;;;10.10;6.07;;;22.10;68.10;;;;;;5073517;28;20055;-89
2021/07/19 12:01:31;;;;;;;9.23;5.32;;;22.20;66.90;;;;;;5072776;28;20060;-87
2021/07/19 12:03:59;;;;;;;10.27;5.53;;;22.20;67.80;;;;;;5073440;28;20056;-88
2021/07/19 12:06:26;;;;;;;9.65;5.90;;;22.30;69.50;;;;;;5073276;28;20492;-89
2021/07/19 12:08:54;;;;;;;8.70;5.07;;;22.40;68.80;;;;;;5072365;28;20454;-88
2021/07/19 12:11:20;;;;;;;9.50;5.38;;;22.40;70.00;;;;;;5073092;28;20049;-89
2021/07/19 12:13:46;;;;;;;8.38;5.20;;;22.50;71.70;;;;;;5072886;28;20136;-87
2021/07/19 12:16:13;;;;;;;8.48;5.43;;;22.60;71.00;;;;;;5071824;28;20139;-89
2021/07/19 12:18:42;;;;;;;10.25;5.68;;;22.60;69.40;;;;;;5073567;28;20493;-88
2021/07/19 12:21:12;;;;;;;9.80;6.70;;;22.70;70.60;;;;;;5076597;28;20053;-87
2021/07/19 12:23:58;;;;;;;11.50;6.35;;;22.80;65.90;;;;;;5076890;28;20045;-88
2021/07/19 12:26:30;;;;;;;9.40;6.28;;;22.80;66.90;;;;;;5077219;28;20504;-85
2021/07/19 12:28:57;;;;;;;9.98;6.28;;;22.80;68.30;;;;;;5066443;28;20476;-86
2021/07/19 12:31:30;;;;;;;10.85;7.10;;;22.80;69.60;;;;;;5056689;28;20103;-86
2021/07/19 12:34:03;;;;;;;11.50;7.00;;;22.90;66.80;;;;;;5056722;28;20049;-86
2021/07/19 12:36:29;;;;;;;11.75;7.38;;;23.00;67.70;;;;;;5055794;28;20051;-89
2021/07/19 12:38:55;;;;;;;12.60;7.38;;;23.00;64.70;;;;;;5056616;28;20132;-90
2021/07/19 12:41:22;;;;;;;14.07;8.13;;;22.90;65.40;;;;;;5056667;28;20053;-93
2021/07/19 12:43:56;;;;;;;15.63;8.25;;;22.80;63.50;;;;;;5057509;28;20048;-93
2021/07/19 12:46:23;;;;;;;13.75;8.40;;;22.80;63.50;;;;;;5062546;28;20056;-93
2021/07/19 12:48:50;;;;;;;10.77;7.38;;;22.80;66.10;;;;;;5083193;28;20396;-90
2021/07/19 12:51:24;;;;;;;10.52;7.25;;;22.80;67.20;;;;;;5075173;28;20052;-91